sensor_id;sensor_type;location;lat;lon;timestamp;P1;durP1;ratioP1;P2;durP2;ratioP2
74833;SDS011;63361;52.384;20.930;2023-04-29T00:01:43;22.17;;;12.00;;
74833;SDS011;63361;52.384;20.930;2023-04-29T00:04:09;26.30;;;13.00;;
74833;SDS011;63361;52.384;20.930;2023-04-29T00:06:34;23.37;;;12.30;;
74833;SDS011;63361;52.384;20.930;2023-04-29T00:08:59;24.37;;;11.63;;
74833;SDS011;63361;52.384;20.930;2023-04-29T00:11:25;22.73;;;12.43;;
74833;SDS011;63361;52.384;20.930;2023-04-29T00:13:50;22.37;;;12.50;;
74833;SDS011;63361;52.384;20.930;2023-04-29T00:16:15;24.95;;;12.93;;
74833;SDS011;63361;52.384;20.930;2023-04-29T00:18:41;25.03;;;12.30;;
74833;SDS011;63361;52.384;20.930;2023-04-29T00:21:06;23.47;;;12.70;;
74833;SDS011;63361;52.384;20.930;2023-04-29T00:23:32;22.70;;;11.63;;
74833;SDS011;63361;52.384;20.930;2023-04-29T00:25:57;23.00;;;12.15;;
74833;SDS011;63361;52.384;20.930;2023-04-29T00:28:23;20.83;;;11.63;;
74833;SDS011;63361;52.384;20.930;2023-04-29T00:30:49;24.67;;;12.13;;
74833;SDS011;63361;52.384;20.930;2023-04-29T00:33:14;23.87;;;11.73;;
74833;SDS011;63361;52.384;20.930;2023-04-29T00:35:39;20.77;;;12.27;;
74833;SDS011;63361;52.384;20.930;2023-04-29T00:38:05;24.50;;;11.13;;
74833;SDS011;63361;52.384;20.930;2023-04-29T00:40:30;24.57;;;12.07;;
74833;SDS011;63361;52.384;20.930;2023-04-29T00:42:55;21.20;;;11.60;;
74833;SDS011;63361;52.384;20.930;2023-04-29T00:45:21;24.58;;;12.45;;
74833;SDS011;63361;52.384;20.930;2023-04-29T00:47:46;22.80;;;12.10;;
74833;SDS011;63361;52.384;20.930;2023-04-29T00:50:12;29.30;;;12.47;;
74833;SDS011;63361;52.384;20.930;2023-04-29T00:52:37;21.05;;;11.38;;
74833;SDS011;63361;52.384;20.930;2023-04-29T00:55:04;22.33;;;13.47;;
74833;SDS011;63361;52.384;20.930;2023-04-29T00:57:31;22.63;;;11.73;;
74833;SDS011;63361;52.384;20.930;2023-04-29T00:59:58;22.05;;;13.00;;
74833;SDS011;63361;52.384;20.930;2023-04-29T01:02:24;25.33;;;13.00;;
74833;SDS011;63361;52.384;20.930;2023-04-29T01:04:50;24.80;;;12.85;;
74833;SDS011;63361;52.384;20.930;2023-04-29T01:07:16;20.43;;;11.23;;
74833;SDS011;63361;52.384;20.930;2023-04-29T01:12:27;23.48;;;11.98;;
74833;SDS011;63361;52.384;20.930;2023-04-29T01:15:08;17.70;;;11.40;;
74833;SDS011;63361;52.384;20.930;2023-04-29T01:17:47;26.25;;;12.38;;
74833;SDS011;63361;52.384;20.930;2023-04-29T01:20:19;23.70;;;12.23;;
74833;SDS011;63361;52.384;20.930;2023-04-29T01:22:47;22.05;;;12.73;;
74833;SDS011;63361;52.384;20.930;2023-04-29T01:25:12;20.83;;;12.30;;
74833;SDS011;63361;52.384;20.930;2023-04-29T01:27:41;20.15;;;11.77;;
74833;SDS011;63361;52.384;20.930;2023-04-29T01:38:29;20.13;;;12.20;;
74833;SDS011;63361;52.384;20.930;2023-04-29T01:43:40;25.15;;;12.50;;
74833;SDS011;63361;52.384;20.930;2023-04-29T01:46:10;18.80;;;11.65;;
74833;SDS011;63361;52.384;20.930;2023-04-29T01:48:40;24.00;;;11.97;;
74833;SDS011;63361;52.384;20.930;2023-04-29T01:51:05;19.63;;;11.20;;
74833;SDS011;63361;52.384;20.930;2023-04-29T01:53:31;21.20;;;11.80;;
74833;SDS011;63361;52.384;20.930;2023-04-29T01:55:56;21.57;;;11.10;;
74833;SDS011;63361;52.384;20.930;2023-04-29T01:58:22;20.63;;;11.60;;
74833;SDS011;63361;52.384;20.930;2023-04-29T02:00:47;21.13;;;11.77;;
74833;SDS011;63361;52.384;20.930;2023-04-29T02:03:13;17.87;;;10.90;;
74833;SDS011;63361;52.384;20.930;2023-04-29T02:05:38;19.53;;;10.97;;
74833;SDS011;63361;52.384;20.930;2023-04-29T02:08:03;19.33;;;11.47;;
74833;SDS011;63361;52.384;20.930;2023-04-29T02:10:31;19.85;;;11.23;;
74833;SDS011;63361;52.384;20.930;2023-04-29T02:12:57;20.43;;;10.73;;
74833;SDS011;63361;52.384;20.930;2023-04-29T02:15:24;17.07;;;10.23;;
74833;SDS011;63361;52.384;20.930;2023-04-29T02:17:51;21.58;;;10.95;;
74833;SDS011;63361;52.384;20.930;2023-04-29T02:20:16;18.03;;;10.77;;
74833;SDS011;63361;52.384;20.930;2023-04-29T02:22:41;22.33;;;10.57;;
74833;SDS011;63361;52.384;20.930;2023-04-29T02:25:07;19.30;;;10.63;;
74833;SDS011;63361;52.384;20.930;2023-04-29T02:27:33;16.75;;;9.75;;
74833;SDS011;63361;52.384;20.930;2023-04-29T02:29:58;18.20;;;10.23;;
74833;SDS011;63361;52.384;20.930;2023-04-29T02:32:23;17.53;;;10.67;;
74833;SDS011;63361;52.384;20.930;2023-04-29T02:34:49;19.80;;;10.97;;
74833;SDS011;63361;52.384;20.930;2023-04-29T02:37:15;18.58;;;10.70;;
74833;SDS011;63361;52.384;20.930;2023-04-29T02:39:41;18.53;;;10.53;;
74833;SDS011;63361;52.384;20.930;2023-04-29T02:42:06;18.00;;;10.40;;
74833;SDS011;63361;52.384;20.930;2023-04-29T02:44:31;19.53;;;9.97;;
74833;SDS011;63361;52.384;20.930;2023-04-29T02:46:57;18.33;;;10.60;;
74833;SDS011;63361;52.384;20.930;2023-04-29T02:49:22;17.10;;;9.77;;
74833;SDS011;63361;52.384;20.930;2023-04-29T02:51:47;16.87;;;10.53;;
74833;SDS011;63361;52.384;20.930;2023-04-29T02:54:16;16.98;;;10.07;;
74833;SDS011;63361;52.384;20.930;2023-04-29T02:56:41;15.70;;;9.80;;
74833;SDS011;63361;52.384;20.930;2023-04-29T02:59:07;18.08;;;10.05;;
74833;SDS011;63361;52.384;20.930;2023-04-29T03:01:33;17.30;;;9.63;;
74833;SDS011;63361;52.384;20.930;2023-04-29T03:03:58;16.80;;;9.33;;
74833;SDS011;63361;52.384;20.930;2023-04-29T03:06:24;17.80;;;9.48;;
74833;SDS011;63361;52.384;20.930;2023-04-29T03:08:50;18.13;;;9.53;;
74833;SDS011;63361;52.384;20.930;2023-04-29T03:11:16;23.42;;;9.73;;
74833;SDS011;63361;52.384;20.930;2023-04-29T03:13:42;17.67;;;9.27;;
74833;SDS011;63361;52.384;20.930;2023-04-29T03:16:07;16.77;;;9.30;;
74833;SDS011;63361;52.384;20.930;2023-04-29T03:18:32;17.50;;;9.50;;
74833;SDS011;63361;52.384;20.930;2023-04-29T03:20:58;15.23;;;8.80;;
74833;SDS011;63361;52.384;20.930;2023-04-29T03:23:23;14.88;;;9.07;;
74833;SDS011;63361;52.384;20.930;2023-04-29T03:25:49;17.23;;;9.80;;
74833;SDS011;63361;52.384;20.930;2023-04-29T03:28:17;16.38;;;8.95;;
74833;SDS011;63361;52.384;20.930;2023-04-29T03:30:42;17.43;;;8.83;;
74833;SDS011;63361;52.384;20.930;2023-04-29T03:33:07;16.40;;;9.13;;
74833;SDS011;63361;52.384;20.930;2023-04-29T03:35:33;15.20;;;9.70;;
74833;SDS011;63361;52.384;20.930;2023-04-29T03:37:58;17.47;;;8.87;;
74833;SDS011;63361;52.384;20.930;2023-04-29T03:40:24;16.70;;;9.27;;
74833;SDS011;63361;52.384;20.930;2023-04-29T03:42:49;14.93;;;8.23;;
74833;SDS011;63361;52.384;20.930;2023-04-29T03:45:14;16.50;;;8.40;;
74833;SDS011;63361;52.384;20.930;2023-04-29T03:47:40;15.10;;;8.63;;
74833;SDS011;63361;52.384;20.930;2023-04-29T03:50:05;15.07;;;8.50;;
74833;SDS011;63361;52.384;20.930;2023-04-29T03:52:32;20.25;;;8.80;;
74833;SDS011;63361;52.384;20.930;2023-04-29T03:55:00;15.60;;;7.93;;
74833;SDS011;63361;52.384;20.930;2023-04-29T03:57:26;14.13;;;8.00;;
74833;SDS011;63361;52.384;20.930;2023-04-29T03:59:51;16.73;;;8.23;;
74833;SDS011;63361;52.384;20.930;2023-04-29T04:02:17;16.23;;;8.53;;
74833;SDS011;63361;52.384;20.930;2023-04-29T04:04:42;15.03;;;8.27;;
74833;SDS011;63361;52.384;20.930;2023-04-29T04:07:07;12.40;;;7.93;;
74833;SDS011;63361;52.384;20.930;2023-04-29T04:09:33;15.23;;;8.37;;
74833;SDS011;63361;52.384;20.930;2023-04-29T04:11:58;16.87;;;8.20;;
74833;SDS011;63361;52.384;20.930;2023-04-29T04:14:24;14.25;;;7.97;;
74833;SDS011;63361;52.384;20.930;2023-04-29T04:16:50;13.47;;;8.00;;
74833;SDS011;63361;52.384;20.930;2023-04-29T04:19:15;13.27;;;7.63;;
74833;SDS011;63361;52.384;20.930;2023-04-29T04:21:41;14.47;;;8.17;;
74833;SDS011;63361;52.384;20.930;2023-04-29T04:24:06;11.80;;;7.07;;
74833;SDS011;63361;52.384;20.930;2023-04-29T04:26:32;12.13;;;7.40;;
74833;SDS011;63361;52.384;20.930;2023-04-29T04:28:57;12.23;;;6.63;;
74833;SDS011;63361;52.384;20.930;2023-04-29T04:31:22;11.77;;;6.90;;
74833;SDS011;63361;52.384;20.930;2023-04-29T04:33:48;13.63;;;6.67;;
74833;SDS011;63361;52.384;20.930;2023-04-29T04:36:13;13.37;;;6.27;;
74833;SDS011;63361;52.384;20.930;2023-04-29T04:38:39;12.47;;;6.80;;
74833;SDS011;63361;52.384;20.930;2023-04-29T04:41:07;12.77;;;6.47;;
74833;SDS011;63361;52.384;20.930;2023-04-29T04:43:32;15.15;;;6.63;;
74833;SDS011;63361;52.384;20.930;2023-04-29T04:45:58;11.20;;;5.93;;
74833;SDS011;63361;52.384;20.930;2023-04-29T04:48:23;10.07;;;6.07;;
74833;SDS011;63361;52.384;20.930;2023-04-29T04:50:48;12.13;;;6.40;;
74833;SDS011;63361;52.384;20.930;2023-04-29T04:53:14;13.20;;;5.93;;
74833;SDS011;63361;52.384;20.930;2023-04-29T04:55:39;10.23;;;5.67;;
74833;SDS011;63361;52.384;20.930;2023-04-29T04:58:05;11.30;;;5.90;;
74833;SDS011;63361;52.384;20.930;2023-04-29T05:00:30;13.13;;;5.93;;
74833;SDS011;63361;52.384;20.930;2023-04-29T05:02:55;12.27;;;5.87;;
74833;SDS011;63361;52.384;20.930;2023-04-29T05:05:21;12.50;;;5.97;;
74833;SDS011;63361;52.384;20.930;2023-04-29T05:07:46;12.43;;;5.67;;
74833;SDS011;63361;52.384;20.930;2023-04-29T05:10:11;11.63;;;5.73;;
74833;SDS011;63361;52.384;20.930;2023-04-29T05:12:37;10.33;;;5.27;;
74833;SDS011;63361;52.384;20.930;2023-04-29T05:15:02;10.93;;;5.70;;
74833;SDS011;63361;52.384;20.930;2023-04-29T05:17:28;13.18;;;5.95;;
74833;SDS011;63361;52.384;20.930;2023-04-29T05:19:54;10.73;;;5.20;;
74833;SDS011;63361;52.384;20.930;2023-04-29T05:22:19;14.40;;;6.07;;
74833;SDS011;63361;52.384;20.930;2023-04-29T05:24:44;11.47;;;6.40;;
74833;SDS011;63361;52.384;20.930;2023-04-29T05:27:12;10.52;;;5.35;;
74833;SDS011;63361;52.384;20.930;2023-04-29T05:29:38;11.97;;;5.63;;
74833;SDS011;63361;52.384;20.930;2023-04-29T05:32:03;9.23;;;5.37;;
74833;SDS011;63361;52.384;20.930;2023-04-29T05:34:28;8.55;;;5.07;;
74833;SDS011;63361;52.384;20.930;2023-04-29T05:36:54;10.93;;;5.10;;
74833;SDS011;63361;52.384;20.930;2023-04-29T05:39:19;12.20;;;5.27;;
74833;SDS011;63361;52.384;20.930;2023-04-29T05:41:45;9.20;;;5.27;;
74833;SDS011;63361;52.384;20.930;2023-04-29T05:44:10;10.20;;;5.17;;
74833;SDS011;63361;52.384;20.930;2023-04-29T05:46:36;11.63;;;5.47;;
74833;SDS011;63361;52.384;20.930;2023-04-29T05:49:01;10.35;;;5.75;;
74833;SDS011;63361;52.384;20.930;2023-04-29T05:51:26;9.73;;;5.40;;
74833;SDS011;63361;52.384;20.930;2023-04-29T05:53:52;13.53;;;5.63;;
74833;SDS011;63361;52.384;20.930;2023-04-29T05:56:18;11.43;;;5.70;;
74833;SDS011;63361;52.384;20.930;2023-04-29T05:58:44;10.95;;;5.45;;
74833;SDS011;63361;52.384;20.930;2023-04-29T06:01:09;10.13;;;5.20;;
74833;SDS011;63361;52.384;20.930;2023-04-29T06:03:35;11.23;;;4.77;;
74833;SDS011;63361;52.384;20.930;2023-04-29T06:06:01;10.20;;;5.07;;
74833;SDS011;63361;52.384;20.930;2023-04-29T06:08:26;13.40;;;5.30;;
74833;SDS011;63361;52.384;20.930;2023-04-29T06:10:51;11.60;;;4.80;;
74833;SDS011;63361;52.384;20.930;2023-04-29T06:13:17;10.90;;;4.97;;
74833;SDS011;63361;52.384;20.930;2023-04-29T06:15:43;12.90;;;5.60;;
74833;SDS011;63361;52.384;20.930;2023-04-29T06:18:08;7.72;;;4.68;;
74833;SDS011;63361;52.384;20.930;2023-04-29T06:20:33;9.67;;;5.07;;
74833;SDS011;63361;52.384;20.930;2023-04-29T06:22:59;11.17;;;4.90;;
74833;SDS011;63361;52.384;20.930;2023-04-29T06:25:24;11.27;;;5.40;;
74833;SDS011;63361;52.384;20.930;2023-04-29T06:27:49;10.70;;;4.83;;
74833;SDS011;63361;52.384;20.930;2023-04-29T06:30:15;11.77;;;5.07;;
74833;SDS011;63361;52.384;20.930;2023-04-29T06:32:40;12.07;;;4.67;;
74833;SDS011;63361;52.384;20.930;2023-04-29T06:35:06;12.97;;;5.50;;
74833;SDS011;63361;52.384;20.930;2023-04-29T06:37:32;8.98;;;4.50;;
74833;SDS011;63361;52.384;20.930;2023-04-29T06:39:57;10.13;;;4.30;;
74833;SDS011;63361;52.384;20.930;2023-04-29T06:42:22;9.37;;;4.53;;
74833;SDS011;63361;52.384;20.930;2023-04-29T06:44:48;9.87;;;4.43;;
74833;SDS011;63361;52.384;20.930;2023-04-29T06:47:13;9.10;;;4.50;;
74833;SDS011;63361;52.384;20.930;2023-04-29T06:49:39;10.73;;;4.65;;
74833;SDS011;63361;52.384;20.930;2023-04-29T06:52:04;11.90;;;4.10;;
74833;SDS011;63361;52.384;20.930;2023-04-29T06:54:30;14.13;;;4.85;;
74833;SDS011;63361;52.384;20.930;2023-04-29T06:56:55;10.33;;;4.37;;
74833;SDS011;63361;52.384;20.930;2023-04-29T06:59:22;6.95;;;3.78;;
74833;SDS011;63361;52.384;20.930;2023-04-29T07:01:47;7.90;;;4.37;;
74833;SDS011;63361;52.384;20.930;2023-04-29T07:04:13;10.70;;;3.80;;
74833;SDS011;63361;52.384;20.930;2023-04-29T07:06:38;10.73;;;4.30;;
74833;SDS011;63361;52.384;20.930;2023-04-29T07:09:03;9.30;;;4.10;;
74833;SDS011;63361;52.384;20.930;2023-04-29T07:11:29;15.48;;;4.07;;
74833;SDS011;63361;52.384;20.930;2023-04-29T07:13:54;8.00;;;3.77;;
74833;SDS011;63361;52.384;20.930;2023-04-29T07:16:19;10.23;;;3.80;;
74833;SDS011;63361;52.384;20.930;2023-04-29T07:18:46;9.25;;;3.70;;
74833;SDS011;63361;52.384;20.930;2023-04-29T07:21:12;8.77;;;4.03;;
74833;SDS011;63361;52.384;20.930;2023-04-29T07:23:37;9.90;;;3.80;;
74833;SDS011;63361;52.384;20.930;2023-04-29T07:26:12;6.23;;;3.60;;
74833;SDS011;63361;52.384;20.930;2023-04-29T07:28:39;8.25;;;3.42;;
74833;SDS011;63361;52.384;20.930;2023-04-29T07:31:05;9.15;;;4.13;;
74833;SDS011;63361;52.384;20.930;2023-04-29T07:33:32;7.40;;;3.53;;
74833;SDS011;63361;52.384;20.930;2023-04-29T07:35:57;12.40;;;3.38;;
74833;SDS011;63361;52.384;20.930;2023-04-29T07:38:23;7.73;;;3.33;;
74833;SDS011;63361;52.384;20.930;2023-04-29T07:40:48;7.85;;;3.67;;
74833;SDS011;63361;52.384;20.930;2023-04-29T07:43:14;7.30;;;3.47;;
74833;SDS011;63361;52.384;20.930;2023-04-29T07:45:39;7.87;;;3.27;;
74833;SDS011;63361;52.384;20.930;2023-04-29T07:48:05;9.88;;;3.20;;
74833;SDS011;63361;52.384;20.930;2023-04-29T07:50:33;12.23;;;3.50;;
74833;SDS011;63361;52.384;20.930;2023-04-29T07:52:58;10.25;;;3.65;;
74833;SDS011;63361;52.384;20.930;2023-04-29T07:55:26;9.70;;;3.45;;
74833;SDS011;63361;52.384;20.930;2023-04-29T07:57:52;9.48;;;3.60;;
74833;SDS011;63361;52.384;20.930;2023-04-29T08:00:17;9.57;;;3.50;;
74833;SDS011;63361;52.384;20.930;2023-04-29T08:02:43;7.30;;;3.40;;
74833;SDS011;63361;52.384;20.930;2023-04-29T08:05:09;7.77;;;3.40;;
74833;SDS011;63361;52.384;20.930;2023-04-29T08:07:34;8.67;;;3.23;;
74833;SDS011;63361;52.384;20.930;2023-04-29T08:10:00;6.72;;;3.10;;
74833;SDS011;63361;52.384;20.930;2023-04-29T08:12:25;6.63;;;2.90;;
74833;SDS011;63361;52.384;20.930;2023-04-29T08:14:50;7.67;;;3.57;;
74833;SDS011;63361;52.384;20.930;2023-04-29T08:17:16;7.47;;;3.20;;
74833;SDS011;63361;52.384;20.930;2023-04-29T08:19:41;6.07;;;3.40;;
74833;SDS011;63361;52.384;20.930;2023-04-29T08:22:06;6.30;;;3.00;;
74833;SDS011;63361;52.384;20.930;2023-04-29T08:24:32;7.85;;;2.97;;
74833;SDS011;63361;52.384;20.930;2023-04-29T08:26:59;8.57;;;3.20;;
74833;SDS011;63361;52.384;20.930;2023-04-29T08:29:24;6.35;;;3.25;;
74833;SDS011;63361;52.384;20.930;2023-04-29T08:31:49;7.37;;;3.20;;
74833;SDS011;63361;52.384;20.930;2023-04-29T08:34:15;9.27;;;3.50;;
74833;SDS011;63361;52.384;20.930;2023-04-29T08:36:40;8.73;;;3.30;;
74833;SDS011;63361;52.384;20.930;2023-04-29T08:39:06;9.57;;;3.17;;
74833;SDS011;63361;52.384;20.930;2023-04-29T08:41:31;9.13;;;3.20;;
74833;SDS011;63361;52.384;20.930;2023-04-29T08:43:58;7.88;;;2.88;;
74833;SDS011;63361;52.384;20.930;2023-04-29T08:46:24;7.82;;;3.30;;
74833;SDS011;63361;52.384;20.930;2023-04-29T08:48:51;7.67;;;3.23;;
74833;SDS011;63361;52.384;20.930;2023-04-29T08:51:17;7.05;;;3.10;;
74833;SDS011;63361;52.384;20.930;2023-04-29T08:53:42;6.33;;;2.77;;
74833;SDS011;63361;52.384;20.930;2023-04-29T08:56:08;8.65;;;2.95;;
74833;SDS011;63361;52.384;20.930;2023-04-29T08:58:40;10.10;;;3.57;;
74833;SDS011;63361;52.384;20.930;2023-04-29T09:01:07;9.95;;;3.17;;
74833;SDS011;63361;52.384;20.930;2023-04-29T09:03:49;9.32;;;3.25;;
74833;SDS011;63361;52.384;20.930;2023-04-29T09:06:19;8.35;;;3.40;;
74833;SDS011;63361;52.384;20.930;2023-04-29T09:08:45;7.87;;;3.13;;
74833;SDS011;63361;52.384;20.930;2023-04-29T09:11:11;8.10;;;3.20;;
74833;SDS011;63361;52.384;20.930;2023-04-29T09:13:37;7.17;;;2.97;;
74833;SDS011;63361;52.384;20.930;2023-04-29T09:16:02;7.60;;;3.60;;
74833;SDS011;63361;52.384;20.930;2023-04-29T09:21:14;8.23;;;3.22;;
74833;SDS011;63361;52.384;20.930;2023-04-29T09:23:44;16.98;;;4.20;;
74833;SDS011;63361;52.384;20.930;2023-04-29T09:26:10;11.38;;;3.63;;
74833;SDS011;63361;52.384;20.930;2023-04-29T09:28:36;8.83;;;2.90;;
74833;SDS011;63361;52.384;20.930;2023-04-29T09:31:03;6.75;;;2.97;;
74833;SDS011;63361;52.384;20.930;2023-04-29T09:33:44;9.35;;;2.78;;
74833;SDS011;63361;52.384;20.930;2023-04-29T09:36:20;11.27;;;3.60;;
74833;SDS011;63361;52.384;20.930;2023-04-29T09:39:00;6.45;;;3.13;;
74833;SDS011;63361;52.384;20.930;2023-04-29T09:41:26;7.18;;;3.45;;
74833;SDS011;63361;52.384;20.930;2023-04-29T09:44:04;8.90;;;3.17;;
74833;SDS011;63361;52.384;20.930;2023-04-29T09:46:33;8.65;;;4.00;;
74833;SDS011;63361;52.384;20.930;2023-04-29T09:49:01;7.60;;;3.23;;
74833;SDS011;63361;52.384;20.930;2023-04-29T09:51:28;8.15;;;2.88;;
74833;SDS011;63361;52.384;20.930;2023-04-29T09:53:56;9.52;;;3.28;;
74833;SDS011;63361;52.384;20.930;2023-04-29T09:56:23;7.95;;;3.25;;
74833;SDS011;63361;52.384;20.930;2023-04-29T09:58:52;7.75;;;3.20;;
74833;SDS011;63361;52.384;20.930;2023-04-29T10:01:18;11.77;;;3.50;;
74833;SDS011;63361;52.384;20.930;2023-04-29T10:03:45;10.03;;;3.40;;
74833;SDS011;63361;52.384;20.930;2023-04-29T10:06:12;8.98;;;2.67;;
74833;SDS011;63361;52.384;20.930;2023-04-29T10:08:40;5.85;;;2.97;;
74833;SDS011;63361;52.384;20.930;2023-04-29T10:11:08;9.88;;;3.20;;
74833;SDS011;63361;52.384;20.930;2023-04-29T10:13:35;7.10;;;3.05;;
74833;SDS011;63361;52.384;20.930;2023-04-29T10:16:12;6.63;;;3.43;;
74833;SDS011;63361;52.384;20.930;2023-04-29T10:18:51;6.55;;;3.60;;
74833;SDS011;63361;52.384;20.930;2023-04-29T10:21:20;6.82;;;3.00;;
74833;SDS011;63361;52.384;20.930;2023-04-29T10:23:50;6.40;;;2.97;;
74833;SDS011;63361;52.384;20.930;2023-04-29T10:26:17;7.10;;;3.20;;
74833;SDS011;63361;52.384;20.930;2023-04-29T10:28:45;6.60;;;2.60;;
74833;SDS011;63361;52.384;20.930;2023-04-29T10:31:11;7.47;;;3.17;;
74833;SDS011;63361;52.384;20.930;2023-04-29T10:33:39;7.65;;;3.50;;
74833;SDS011;63361;52.384;20.930;2023-04-29T10:36:08;8.88;;;3.33;;
74833;SDS011;63361;52.384;20.930;2023-04-29T10:38:45;5.82;;;2.80;;
74833;SDS011;63361;52.384;20.930;2023-04-29T10:43:52;6.40;;;3.00;;
74833;SDS011;63361;52.384;20.930;2023-04-29T10:46:20;6.22;;;2.85;;
74833;SDS011;63361;52.384;20.930;2023-04-29T10:48:47;6.13;;;3.05;;
74833;SDS011;63361;52.384;20.930;2023-04-29T10:51:47;8.00;;;2.78;;
74833;SDS011;63361;52.384;20.930;2023-04-29T10:56:48;9.48;;;3.03;;
74833;SDS011;63361;52.384;20.930;2023-04-29T10:59:22;10.10;;;3.20;;
74833;SDS011;63361;52.384;20.930;2023-04-29T11:02:06;8.10;;;3.20;;
74833;SDS011;63361;52.384;20.930;2023-04-29T11:04:33;7.53;;;3.47;;
74833;SDS011;63361;52.384;20.930;2023-04-29T11:06:58;7.33;;;3.63;;
74833;SDS011;63361;52.384;20.930;2023-04-29T11:09:27;8.00;;;2.95;;
74833;SDS011;63361;52.384;20.930;2023-04-29T11:12:01;5.47;;;2.65;;
74833;SDS011;63361;52.384;20.930;2023-04-29T11:14:30;8.63;;;3.20;;
74833;SDS011;63361;52.384;20.930;2023-04-29T11:17:15;7.20;;;2.92;;
74833;SDS011;63361;52.384;20.930;2023-04-29T11:19:43;7.72;;;3.50;;
74833;SDS011;63361;52.384;20.930;2023-04-29T11:22:25;5.88;;;2.63;;
74833;SDS011;63361;52.384;20.930;2023-04-29T11:27:31;6.37;;;2.63;;
74833;SDS011;63361;52.384;20.930;2023-04-29T11:30:07;7.40;;;3.30;;
74833;SDS011;63361;52.384;20.930;2023-04-29T11:32:33;7.18;;;2.83;;
74833;SDS011;63361;52.384;20.930;2023-04-29T11:37:36;7.70;;;3.28;;
74833;SDS011;63361;52.384;20.930;2023-04-29T11:40:02;7.43;;;3.30;;
74833;SDS011;63361;52.384;20.930;2023-04-29T11:42:29;8.90;;;3.00;;
74833;SDS011;63361;52.384;20.930;2023-04-29T11:44:54;6.03;;;2.73;;
74833;SDS011;63361;52.384;20.930;2023-04-29T11:47:27;8.35;;;3.17;;
74833;SDS011;63361;52.384;20.930;2023-04-29T11:50:03;12.30;;;3.10;;
74833;SDS011;63361;52.384;20.930;2023-04-29T11:52:30;8.75;;;2.75;;
74833;SDS011;63361;52.384;20.930;2023-04-29T11:54:56;7.75;;;2.70;;
74833;SDS011;63361;52.384;20.930;2023-04-29T11:57:24;6.57;;;3.13;;
74833;SDS011;63361;52.384;20.930;2023-04-29T11:59:49;8.63;;;3.45;;
74833;SDS011;63361;52.384;20.930;2023-04-29T12:02:15;6.60;;;3.00;;
74833;SDS011;63361;52.384;20.930;2023-04-29T12:04:46;8.17;;;2.70;;
74833;SDS011;63361;52.384;20.930;2023-04-29T12:07:15;5.97;;;3.13;;
74833;SDS011;63361;52.384;20.930;2023-04-29T12:09:43;8.02;;;3.10;;
74833;SDS011;63361;52.384;20.930;2023-04-29T12:12:10;8.38;;;3.10;;
74833;SDS011;63361;52.384;20.930;2023-04-29T12:14:36;6.20;;;2.70;;
74833;SDS011;63361;52.384;20.930;2023-04-29T12:17:02;6.82;;;3.30;;
74833;SDS011;63361;52.384;20.930;2023-04-29T12:19:29;7.25;;;3.00;;
74833;SDS011;63361;52.384;20.930;2023-04-29T12:21:57;8.13;;;3.27;;
74833;SDS011;63361;52.384;20.930;2023-04-29T12:24:23;11.65;;;3.60;;
74833;SDS011;63361;52.384;20.930;2023-04-29T12:26:48;8.00;;;3.10;;
74833;SDS011;63361;52.384;20.930;2023-04-29T12:29:14;7.50;;;2.92;;
74833;SDS011;63361;52.384;20.930;2023-04-29T12:31:39;8.47;;;3.10;;
74833;SDS011;63361;52.384;20.930;2023-04-29T12:34:06;8.30;;;3.20;;
74833;SDS011;63361;52.384;20.930;2023-04-29T12:36:31;6.10;;;2.60;;
74833;SDS011;63361;52.384;20.930;2023-04-29T12:38:58;6.60;;;3.47;;
74833;SDS011;63361;52.384;20.930;2023-04-29T12:41:36;6.43;;;3.22;;
74833;SDS011;63361;52.384;20.930;2023-04-29T12:44:04;9.33;;;3.13;;
74833;SDS011;63361;52.384;20.930;2023-04-29T12:46:33;7.00;;;3.00;;
74833;SDS011;63361;52.384;20.930;2023-04-29T12:49:02;5.28;;;2.90;;
74833;SDS011;63361;52.384;20.930;2023-04-29T12:51:32;7.65;;;2.92;;
74833;SDS011;63361;52.384;20.930;2023-04-29T12:53:59;5.18;;;2.85;;
74833;SDS011;63361;52.384;20.930;2023-04-29T12:56:25;9.43;;;2.97;;
74833;SDS011;63361;52.384;20.930;2023-04-29T12:58:51;5.90;;;3.00;;
74833;SDS011;63361;52.384;20.930;2023-04-29T13:01:17;7.07;;;2.90;;
74833;SDS011;63361;52.384;20.930;2023-04-29T13:03:42;6.88;;;3.22;;
74833;SDS011;63361;52.384;20.930;2023-04-29T13:06:07;5.83;;;3.00;;
74833;SDS011;63361;52.384;20.930;2023-04-29T13:08:33;6.47;;;3.00;;
74833;SDS011;63361;52.384;20.930;2023-04-29T13:10:58;7.83;;;3.63;;
74833;SDS011;63361;52.384;20.930;2023-04-29T13:13:24;8.03;;;3.47;;
74833;SDS011;63361;52.384;20.930;2023-04-29T13:15:49;7.78;;;3.22;;
74833;SDS011;63361;52.384;20.930;2023-04-29T13:18:14;9.33;;;3.67;;
74833;SDS011;63361;52.384;20.930;2023-04-29T13:20:40;9.47;;;3.40;;
74833;SDS011;63361;52.384;20.930;2023-04-29T13:23:05;7.03;;;3.23;;
74833;SDS011;63361;52.384;20.930;2023-04-29T13:25:31;6.53;;;3.25;;
74833;SDS011;63361;52.384;20.930;2023-04-29T13:27:56;6.53;;;3.10;;
74833;SDS011;63361;52.384;20.930;2023-04-29T13:30:21;9.40;;;3.70;;
74833;SDS011;63361;52.384;20.930;2023-04-29T13:32:47;8.23;;;3.93;;
74833;SDS011;63361;52.384;20.930;2023-04-29T13:35:12;6.57;;;3.07;;
74833;SDS011;63361;52.384;20.930;2023-04-29T13:37:37;7.15;;;2.92;;
74833;SDS011;63361;52.384;20.930;2023-04-29T13:40:03;6.70;;;3.30;;
74833;SDS011;63361;52.384;20.930;2023-04-29T13:42:31;8.03;;;2.97;;
74833;SDS011;63361;52.384;20.930;2023-04-29T13:44:56;7.40;;;3.40;;
74833;SDS011;63361;52.384;20.930;2023-04-29T13:47:21;10.30;;;3.63;;
74833;SDS011;63361;52.384;20.930;2023-04-29T13:49:47;10.53;;;3.37;;
74833;SDS011;63361;52.384;20.930;2023-04-29T13:52:13;8.38;;;3.58;;
74833;SDS011;63361;52.384;20.930;2023-04-29T13:54:38;9.67;;;3.70;;
74833;SDS011;63361;52.384;20.930;2023-04-29T13:57:04;8.03;;;3.37;;
74833;SDS011;63361;52.384;20.930;2023-04-29T13:59:30;6.70;;;3.58;;
74833;SDS011;63361;52.384;20.930;2023-04-29T14:01:56;13.13;;;4.38;;
74833;SDS011;63361;52.384;20.930;2023-04-29T14:04:23;7.40;;;3.38;;
74833;SDS011;63361;52.384;20.930;2023-04-29T14:06:49;6.75;;;3.53;;
74833;SDS011;63361;52.384;20.930;2023-04-29T14:09:15;7.47;;;3.30;;
74833;SDS011;63361;52.384;20.930;2023-04-29T14:11:41;7.10;;;3.47;;
74833;SDS011;63361;52.384;20.930;2023-04-29T14:14:06;8.07;;;3.92;;
74833;SDS011;63361;52.384;20.930;2023-04-29T14:16:31;8.00;;;4.30;;
74833;SDS011;63361;52.384;20.930;2023-04-29T14:18:57;8.13;;;4.83;;
74833;SDS011;63361;52.384;20.930;2023-04-29T14:21:22;9.27;;;5.53;;
74833;SDS011;63361;52.384;20.930;2023-04-29T14:23:48;8.00;;;5.17;;
74833;SDS011;63361;52.384;20.930;2023-04-29T14:26:14;10.30;;;4.70;;
74833;SDS011;63361;52.384;20.930;2023-04-29T14:28:39;7.73;;;3.27;;
74833;SDS011;63361;52.384;20.930;2023-04-29T14:31:04;12.93;;;6.47;;
74833;SDS011;63361;52.384;20.930;2023-04-29T14:33:30;7.10;;;3.67;;
74833;SDS011;63361;52.384;20.930;2023-04-29T14:35:55;8.00;;;3.53;;
74833;SDS011;63361;52.384;20.930;2023-04-29T14:38:21;7.72;;;4.85;;
74833;SDS011;63361;52.384;20.930;2023-04-29T14:40:46;8.60;;;4.13;;
74833;SDS011;63361;52.384;20.930;2023-04-29T14:43:12;8.15;;;4.97;;
74833;SDS011;63361;52.384;20.930;2023-04-29T14:45:38;26.67;;;15.37;;
74833;SDS011;63361;52.384;20.930;2023-04-29T14:48:04;8.80;;;5.00;;
74833;SDS011;63361;52.384;20.930;2023-04-29T14:50:30;25.27;;;12.80;;